Time;durP1;ratioP1;P1;durP2;ratioP2;P2;SDS_P1;SDS_P2;PMS_P1;PMS_P2;Temp;Humidity;BMP_temperature;BMP_pressure;BME280_temperature;BME280_humidity;BME280_pressure;Samples;Min_cycle;Max_cycle;Signal;HPM_P1;HPM_P2
2021/09/07 00:01:57;;;;;;;0.50;0.50;;;;;;;24.32;41.02;95306.94;5035346;28;99294;-54
2021/09/07 00:04:28;;;;;;;0.50;0.50;;;;;;;24.27;40.78;95302.63;5034878;28;99217;-54
2021/09/07 00:06:55;;;;;;;0.60;0.60;;;;;;;24.30;40.71;95301.06;5035002;28;96802;-52
2021/09/07 00:09:21;;;;;;;0.77;0.63;;;;;;;24.26;40.87;95296.34;5035578;28;97032;-47
2021/09/07 00:11:46;;;;;;;0.50;0.50;;;;;;;24.32;40.91;95309.72;5035067;28;99434;-49
2021/09/07 00:14:12;;;;;;;0.68;0.60;;;;;;;24.25;40.74;95294.78;5035059;28;98863;-54
2021/09/07 00:16:37;;;;;;;0.50;0.50;;;;;;;24.31;40.64;95294.34;5035437;28;96762;-49
2021/09/07 00:19:02;;;;;;;0.30;0.30;;;;;;;24.31;40.79;95295.09;5035207;28;97182;-48
2021/09/07 00:21:28;;;;;;;0.70;0.70;;;;;;;24.32;40.75;95298.66;5035020;28;99426;-54
2021/09/07 00:23:53;;;;;;;0.65;0.50;;;;;;;24.32;40.69;95298.66;5034921;28;102498;-54
2021/09/07 00:26:19;;;;;;;0.40;0.40;;;;;;;24.32;40.77;95306.94;5035174;28;96738;-49
2021/09/07 00:28:44;;;;;;;0.65;0.65;;;;;;;24.33;40.84;95305.75;5034895;28;97648;-53
2021/09/07 00:31:09;;;;;;;0.50;0.50;;;;;;;24.32;40.73;95312.47;5033825;27;106871;-55
2021/09/07 00:33:35;;;;;;;0.47;0.47;;;;;;;24.28;40.98;95299.47;5034372;28;99587;-49
2021/09/07 00:36:00;;;;;;;0.57;0.57;;;;;;;24.31;40.91;95302.63;5034800;28;96693;-52
2021/09/07 00:38:26;;;;;;;0.40;0.40;;;;;;;24.30;40.85;95312.88;5034951;28;96946;-56
2021/09/07 00:40:51;;;;;;;0.50;0.50;;;;;;;24.32;40.99;95304.19;5034788;28;99550;-52
2021/09/07 00:43:17;;;;;;;0.57;0.57;;;;;;;24.30;40.75;95301.06;5030032;28;99208;-56
2021/09/07 00:45:44;;;;;;;0.73;0.50;;;;;;;24.30;40.78;95301.06;5034644;28;96606;-57
2021/09/07 00:48:09;;;;;;;0.50;0.50;;;;;;;24.23;40.97;95301.88;5016857;28;96923;-59
2021/09/07 00:50:35;;;;;;;0.30;0.30;;;;;;;24.29;40.93;95322.34;5034345;28;104014;-52
2021/09/07 00:53:00;;;;;;;0.60;0.60;;;;;;;24.31;40.78;95313.66;5034471;28;99304;-51
2021/09/07 00:55:26;;;;;;;0.60;0.60;;;;;;;24.30;41.05;95312.09;5016218;28;96839;-51
2021/09/07 00:57:51;;;;;;;0.50;0.50;;;;;;;24.31;41.17;95311.66;5016853;28;97002;-50
2021/09/07 01:00:17;;;;;;;0.50;0.50;;;;;;;24.28;40.98;95316.03;5034493;28;99492;-52
2021/09/07 01:02:42;;;;;;;0.70;0.70;;;;;;;24.28;40.89;95316.03;5034152;28;99005;-50
2021/09/07 01:05:08;;;;;;;0.63;0.63;;;;;;;24.29;40.78;95308.53;5034604;28;96837;-50
2021/09/07 01:07:34;;;;;;;0.55;0.55;;;;;;;24.25;41.15;95310.53;5034258;28;97008;-56
2021/09/07 01:10:00;;;;;;;0.55;0.55;;;;;;;24.24;40.94;95304.25;4982186;27;100458;-54
2021/09/07 01:12:26;;;;;;;0.68;0.68;;;;;;;24.25;40.93;95308.56;5034761;28;99525;-51
2021/09/07 01:14:51;;;;;;;0.55;0.55;;;;;;;24.26;41.30;95306.59;5034601;28;96615;-55
2021/09/07 01:17:17;;;;;;;0.60;0.60;;;;;;;24.24;41.01;95298.72;5034313;28;96580;-54
2021/09/07 01:19:45;;;;;;;0.45;0.45;;;;;;;24.26;41.16;95301.88;5033711;28;100139;-54
2021/09/07 01:22:11;;;;;;;0.60;0.60;;;;;;;24.23;41.20;95302.69;5033862;28;98607;-55
2021/09/07 01:24:36;;;;;;;0.63;0.63;;;;;;;24.24;40.93;95298.72;5034460;28;96721;-57
2021/09/07 01:27:05;;;;;;;0.60;0.60;;;;;;;24.26;41.00;95299.09;5034588;28;96864;-54
2021/09/07 01:29:32;;;;;;;0.70;0.70;;;;;;;24.26;40.93;95304.63;5033711;28;99225;-55
2021/09/07 01:31:58;;;;;;;1.30;0.60;;;;;;;24.27;41.21;95303.44;5015251;28;99109;-53
2021/09/07 01:34:24;;;;;;;0.60;0.60;;;;;;;24.26;41.25;95301.06;5034387;28;96718;-48
2021/09/07 01:36:49;;;;;;;0.50;0.50;;;;;;;24.27;41.01;95299.88;5034017;28;96882;-58
2021/09/07 01:39:15;;;;;;;0.50;0.50;;;;;;;24.25;41.28;95300.28;5033785;28;99859;-56
2021/09/07 01:41:41;;;;;;;0.50;0.50;;;;;;;24.22;41.18;95306.63;5033750;28;98990;-52
2021/09/07 01:44:07;;;;;;;0.60;0.60;;;;;;;24.20;41.29;95297.97;5033297;28;96800;-49
2021/09/07 01:46:32;;;;;;;0.60;0.60;;;;;;;24.23;41.21;95302.69;5034084;28;96928;-55
2021/09/07 01:48:57;;;;;;;0.60;0.60;;;;;;;24.22;41.21;95303.88;5033764;28;99438;-51
2021/09/07 01:51:23;;;;;;;0.50;0.50;;;;;;;24.25;40.96;95300.28;5033437;28;101201;-51
2021/09/07 01:53:49;;;;;;;0.80;0.80;;;;;;;24.26;41.00;95298.31;5033857;28;96664;-50
2021/09/07 01:56:14;;;;;;;0.50;0.50;;;;;;;24.24;41.20;95292.41;5034178;28;96866;-50
2021/09/07 01:58:40;;;;;;;0.55;0.55;;;;;;;24.24;41.06;95298.72;5033255;28;98907;-53
2021/09/07 02:01:05;;;;;;;0.63;0.63;;;;;;;24.23;41.27;95290.84;5033866;28;99150;-52
2021/09/07 02:03:31;;;;;;;0.50;0.50;;;;;;;24.22;41.17;95295.59;5033724;28;96638;-52
2021/09/07 02:05:56;;;;;;;0.50;0.50;;;;;;;24.22;40.95;95292.84;5033745;28;97188;-55
2021/09/07 02:08:22;;;;;;;0.68;0.68;;;;;;;24.22;40.81;95290.06;5032871;28;99399;-54
2021/09/07 02:10:47;;;;;;;0.70;0.70;;;;;;;24.23;41.07;95285.31;5033063;28;99528;-51
2021/09/07 02:13:13;;;;;;;0.68;0.68;;;;;;;24.25;41.27;95285.69;5033675;28;96666;-57
2021/09/07 02:15:38;;;;;;;0.75;0.75;;;;;;;24.20;41.03;95292.47;5033437;28;96891;-51
2021/09/07 02:18:04;;;;;;;0.65;0.65;;;;;;;24.23;41.00;95286.13;5033272;28;100235;-53
2021/09/07 02:20:29;;;;;;;1.25;0.60;;;;;;;24.23;41.36;95297.16;5032974;28;107411;-54
2021/09/07 02:22:54;;;;;;;0.43;0.43;;;;;;;24.21;41.10;95293.22;5032192;27;96630;-54
2021/09/07 02:25:20;;;;;;;0.40;0.40;;;;;;;24.21;41.37;95294.03;5033921;28;96942;-55
2021/09/07 02:27:45;;;;;;;0.30;0.30;;;;;;;24.23;41.03;95291.63;5032771;28;99541;-54
2021/09/07 02:30:11;;;;;;;0.50;0.50;;;;;;;24.22;41.42;95297.56;5033061;28;99248;-53
2021/09/07 02:32:37;;;;;;;0.50;0.50;;;;;;;24.25;41.26;95266.38;5032538;27;96697;-50
2021/09/07 02:35:02;;;;;;;0.55;0.50;;;;;;;24.20;41.23;95270.38;5033166;28;96938;-50
2021/09/07 02:37:28;;;;;;;0.68;0.68;;;;;;;24.23;41.39;95271.53;5032612;28;99667;-55
2021/09/07 02:39:53;;;;;;;0.60;0.60;;;;;;;24.22;41.18;95268.00;5032707;28;101053;-56
2021/09/07 02:42:19;;;;;;;0.50;0.50;;;;;;;24.24;41.33;95276.66;5033203;28;97020;-50
2021/09/07 02:44:44;;;;;;;0.98;0.95;;;;;;;24.12;41.51;95286.22;5033189;28;96909;-63
2021/09/07 02:47:10;;;;;;;4.50;3.67;;;;;;;23.99;42.49;95293.44;5032914;28;99435;-60
2021/09/07 02:49:35;;;;;;;5.70;4.50;;;;;;;23.91;43.13;95292.66;5033412;28;98772;-63
2021/09/07 02:52:00;;;;;;;6.25;4.72;;;;;;;23.79;43.72;95287.66;5033427;28;96834;-61
2021/09/07 02:54:26;;;;;;;6.88;5.95;;;;;;;23.72;43.91;95295.97;5032836;28;97060;-62
2021/09/07 02:56:51;;;;;;;7.28;6.10;;;;;;;23.72;44.00;95291.22;5032295;28;99388;-60
2021/09/07 02:59:17;;;;;;;6.40;5.78;;;;;;;23.64;44.50;95289.69;5033110;28;97735;-60
2021/09/07 03:01:42;;;;;;;6.05;5.45;;;;;;;23.61;44.56;95291.31;5031043;28;97045;-63
2021/09/07 03:04:08;;;;;;;6.57;5.60;;;;;;;23.61;44.70;95285.78;5032068;28;96908;-62
2021/09/07 03:06:33;;;;;;;7.50;5.57;;;;;;;23.59;44.50;95299.19;5031813;28;100264;-59
2021/09/07 03:08:59;;;;;;;6.10;5.38;;;;;;;23.57;44.85;95296.06;5031816;28;99243;-63
2021/09/07 03:11:24;;;;;;;5.72;5.13;;;;;;;23.51;44.80;95289.38;5032228;28;96738;-61
2021/09/07 03:13:49;;;;;;;5.35;4.85;;;;;;;23.52;44.95;95285.44;5032013;28;97477;-61
2021/09/07 03:16:15;;;;;;;5.97;4.68;;;;;;;23.52;44.50;95291.75;5030142;28;99633;-62
2021/09/07 03:18:40;;;;;;;4.72;4.32;;;;;;;23.52;44.72;95277.97;5030122;28;99590;-62
2021/09/07 03:21:06;;;;;;;5.35;4.60;;;;;;;23.49;44.82;95286.25;5029868;28;96730;-62
2021/09/07 03:23:31;;;;;;;4.50;4.10;;;;;;;23.49;45.01;95289.00;5030223;28;96918;-63
2021/09/07 03:25:56;;;;;;;4.15;3.60;;;;;;;23.49;44.73;95283.50;5029733;28;103672;-63
2021/09/07 03:28:22;;;;;;;4.10;3.70;;;;;;;23.46;44.86;95271.31;5030351;28;99382;-64
2021/09/07 03:30:47;;;;;;;4.57;4.18;;;;;;;23.49;44.66;95284.28;5032439;28;96707;-63
2021/09/07 03:33:13;;;;;;;3.88;3.42;;;;;;;23.47;44.85;95286.66;5032386;27;97760;-65
2021/09/07 03:35:38;;;;;;;3.88;3.55;;;;;;;23.45;44.85;95282.72;5017257;28;101560;-63
2021/09/07 03:38:04;;;;;;;3.30;3.10;;;;;;;23.49;44.70;95284.28;5036558;28;97227;-64
2021/09/07 03:40:29;;;;;;;3.97;3.30;;;;;;;23.43;44.74;95276.84;5035994;28;96672;-62
2021/09/07 03:42:55;;;;;;;3.50;3.20;;;;;;;23.49;44.99;95286.25;5036351;28;96892;-62
2021/09/07 03:45:20;;;;;;;3.15;2.90;;;;;;;23.47;45.07;95288.63;5035415;28;99724;-62
2021/09/07 03:47:46;;;;;;;3.55;2.92;;;;;;;23.44;44.78;95292.97;5036339;28;99542;-64
2021/09/07 03:50:12;;;;;;;3.05;2.75;;;;;;;23.42;45.08;95283.53;5035917;28;96853;-62
2021/09/07 03:52:37;;;;;;;3.22;2.90;;;;;;;23.45;45.08;95288.25;5036022;28;96867;-64
2021/09/07 03:55:03;;;;;;;2.60;2.40;;;;;;;23.42;44.78;95289.03;5035807;28;99435;-62
2021/09/07 03:57:28;;;;;;;2.80;2.60;;;;;;;23.49;44.80;95291.75;5035517;28;99594;-63
2021/09/07 03:59:56;;;;;;;2.70;2.50;;;;;;;23.49;44.56;95283.50;5035981;28;96860;-62
2021/09/07 04:02:22;;;;;;;2.50;2.30;;;;;;;23.41;44.82;95276.44;5036691;28;97639;-62
2021/09/07 04:04:47;;;;;;;2.50;2.28;;;;;;;23.49;44.81;95283.50;5035571;28;99515;-64
2021/09/07 04:07:13;;;;;;;2.50;2.30;;;;;;;23.51;44.79;95286.63;5035666;28;98105;-63
2021/09/07 04:09:38;;;;;;;2.50;2.30;;;;;;;23.47;44.81;95289.44;5034919;28;96752;-62
2021/09/07 04:12:04;;;;;;;2.40;2.03;;;;;;;23.49;44.83;95291.75;5035976;28;96837;-63
2021/09/07 04:14:29;;;;;;;1.83;1.73;;;;;;;23.47;44.78;95299.66;5035476;28;99354;-60
2021/09/07 04:16:55;;;;;;;1.90;1.80;;;;;;;23.45;44.80;95293.75;5035258;28;99088;-59
2021/09/07 04:19:20;;;;;;;2.08;1.98;;;;;;;23.44;44.76;95303.22;5035524;28;96652;-61
2021/09/07 04:21:46;;;;;;;1.95;1.85;;;;;;;23.44;44.76;95304.00;5035574;28;96917;-62
2021/09/07 04:24:11;;;;;;;1.85;1.75;;;;;;;23.46;44.68;95311.88;5034914;28;99505;-62
2021/09/07 04:26:37;;;;;;;1.92;1.83;;;;;;;23.51;44.85;95309.50;5035807;28;99440;-65
2021/09/07 04:29:02;;;;;;;1.85;1.75;;;;;;;23.55;44.51;95312.22;5035486;28;96571;-63
2021/09/07 04:31:28;;;;;;;2.00;1.80;;;;;;;23.51;44.49;95311.44;5035046;28;97004;-62
2021/09/07 04:33:53;;;;;;;2.22;1.77;;;;;;;23.51;44.66;95314.19;5034404;28;99532;-62
2021/09/07 04:36:18;;;;;;;1.50;1.40;;;;;;;23.51;44.75;95319.72;5016471;28;99331;-60
2021/09/07 04:38:44;;;;;;;1.58;1.50;;;;;;;23.52;44.47;95321.28;5035121;28;96878;-62
2021/09/07 04:41:09;;;;;;;1.65;1.55;;;;;;;23.50;44.80;95318.16;5035429;28;96960;-63
2021/09/07 04:43:35;;;;;;;1.45;1.35;;;;;;;23.51;44.75;95330.75;5016962;28;100001;-62
2021/09/07 04:46:00;;;;;;;1.73;1.63;;;;;;;23.49;44.48;95316.56;5033785;28;98295;-63
2021/09/07 04:48:26;;;;;;;2.00;1.90;;;;;;;23.51;44.63;95314.19;5035069;28;96828;-60
2021/09/07 04:50:51;;;;;;;1.58;1.48;;;;;;;23.49;44.80;95322.09;5035718;28;96852;-61
2021/09/07 04:53:16;;;;;;;1.20;1.20;;;;;;;23.52;44.59;95321.28;5034844;28;99172;-61
2021/09/07 04:55:45;;;;;;;1.48;1.38;;;;;;;23.50;44.70;95315.38;5034387;28;105237;-64
2021/09/07 04:58:11;;;;;;;1.20;1.20;;;;;;;23.48;44.73;95315.81;5016919;28;96791;-59
2021/09/07 05:00:36;;;;;;;1.30;1.30;;;;;;;23.55;44.40;95323.25;5035059;28;96851;-60
2021/09/07 05:03:02;;;;;;;1.30;1.30;;;;;;;23.53;44.50;95311.81;5034752;28;99629;-62
2021/09/07 05:05:27;;;;;;;1.42;1.33;;;;;;;23.51;44.67;95325.22;5016862;28;97883;-59
2021/09/07 05:07:53;;;;;;;1.52;1.42;;;;;;;23.51;44.78;95326.03;5034946;28;96815;-61
2021/09/07 05:10:22;;;;;;;1.30;1.27;;;;;;;23.50;44.89;95334.69;5034734;28;97143;-62
2021/09/07 05:12:47;;;;;;;1.30;1.10;;;;;;;23.51;45.30;95336.25;5034395;28;99375;-61
2021/09/07 05:15:12;;;;;;;1.10;1.10;;;;;;;23.49;44.87;95328.41;5034814;28;99440;-58
2021/09/07 05:17:38;;;;;;;1.98;1.40;;;;;;;23.49;44.75;95333.13;5034870;28;96711;-60
2021/09/07 05:20:04;;;;;;;1.70;1.38;;;;;;;23.50;44.86;95334.69;5034627;28;97634;-60
2021/09/07 05:22:30;;;;;;;1.20;1.20;;;;;;;23.50;44.62;95334.69;5033705;28;99465;-59
2021/09/07 05:24:55;;;;;;;1.33;1.33;;;;;;;23.51;44.78;95337.06;5034113;28;99820;-61
2021/09/07 05:27:21;;;;;;;1.55;1.45;;;;;;;23.53;44.64;95344.91;5034586;28;96675;-61
2021/09/07 05:29:46;;;;;;;1.38;1.35;;;;;;;23.51;44.72;95348.09;5034636;28;96902;-61
2021/09/07 05:32:11;;;;;;;1.30;1.30;;;;;;;23.51;44.66;95344.53;5034083;27;99384;-60
2021/09/07 05:34:37;;;;;;;2.33;1.15;;;;;;;23.55;44.67;95342.53;5034038;28;99785;-61
2021/09/07 05:37:03;;;;;;;1.10;1.00;;;;;;;23.49;44.75;95339.44;5034069;28;96673;-63
2021/09/07 05:39:29;;;;;;;1.05;1.05;;;;;;;23.54;44.65;95336.25;5034634;28;96889;-61
2021/09/07 05:41:54;;;;;;;0.93;0.93;;;;;;;23.52;44.66;95343.34;5033797;28;99080;-61
2021/09/07 05:44:20;;;;;;;1.20;1.20;;;;;;;23.53;44.54;95333.88;5034152;28;99722;-61
2021/09/07 05:46:46;;;;;;;1.00;1.00;;;;;;;23.53;44.82;95339.41;5033825;28;96613;-60
2021/09/07 05:49:11;;;;;;;1.20;1.20;;;;;;;23.55;44.78;95337.03;5034213;28;97003;-61
2021/09/07 05:51:36;;;;;;;0.93;0.93;;;;;;;23.54;44.81;95346.47;5033861;28;99367;-62
2021/09/07 05:54:02;;;;;;;1.02;0.98;;;;;;;23.51;44.61;95341.78;5033547;28;102019;-60
2021/09/07 05:56:28;;;;;;;1.02;1.02;;;;;;;23.48;44.64;95331.53;5033733;27;96653;-60
2021/09/07 05:58:54;;;;;;;1.00;1.00;;;;;;;23.59;44.43;95350.78;5034123;28;96889;-61
2021/09/07 06:01:20;;;;;;;1.10;1.05;;;;;;;23.54;44.70;95357.50;5033675;28;99188;-61
2021/09/07 06:03:45;;;;;;;1.10;1.10;;;;;;;23.58;44.50;95346.44;5034036;28;99044;-64
2021/09/07 06:06:11;;;;;;;1.30;1.20;;;;;;;23.52;44.63;95348.84;5033964;28;96624;-62
2021/09/07 06:08:36;;;;;;;1.08;1.08;;;;;;;23.54;44.64;95350.03;5033671;28;96981;-61
2021/09/07 06:11:04;;;;;;;0.95;0.95;;;;;;;23.61;44.54;95346.44;5032967;28;99762;-61
2021/09/07 06:13:29;;;;;;;0.70;0.70;;;;;;;23.60;44.25;95350.38;5033413;28;99267;-63
2021/09/07 06:15:55;;;;;;;1.05;1.05;;;;;;;23.56;44.49;95349.63;5034245;28;97574;-61
2021/09/07 06:18:20;;;;;;;1.02;0.80;;;;;;;23.61;44.42;95349.19;5033990;28;96928;-61
2021/09/07 06:20:46;;;;;;;1.00;0.90;;;;;;;23.62;44.47;95342.50;5033624;28;97902;-62
2021/09/07 06:23:11;;;;;;;1.10;0.98;;;;;;;23.64;44.22;95342.09;5033296;28;99520;-62
2021/09/07 06:25:37;;;;;;;0.88;0.88;;;;;;;23.59;44.62;95343.31;5033704;28;96738;-61
2021/09/07 06:28:02;;;;;;;1.13;1.02;;;;;;;23.61;44.33;95340.94;5033880;28;97012;-63
2021/09/07 06:30:28;;;;;;;0.88;0.88;;;;;;;23.60;44.51;95339.38;5033261;28;99322;-61
2021/09/07 06:32:53;;;;;;;1.25;1.00;;;;;;;23.61;44.61;95349.19;5032728;28;99802;-61
2021/09/07 06:35:18;;;;;;;0.70;0.70;;;;;;;23.63;44.33;95348.78;5032735;28;96655;-61
2021/09/07 06:37:44;;;;;;;0.93;0.93;;;;;;;23.59;44.41;95353.53;5033457;28;97504;-60
2021/09/07 06:40:10;;;;;;;0.90;0.90;;;;;;;23.62;44.34;95347.22;5032848;28;99273;-62
2021/09/07 06:42:35;;;;;;;0.73;0.73;;;;;;;23.60;44.65;95350.38;5033079;28;99254;-61
2021/09/07 06:45:02;;;;;;;0.73;0.73;;;;;;;23.59;44.39;95357.09;5033308;28;96663;-61
2021/09/07 06:47:27;;;;;;;0.82;0.82;;;;;;;23.61;44.59;95351.16;5033385;28;96903;-61
2021/09/07 06:49:53;;;;;;;0.75;0.75;;;;;;;23.60;44.63;95358.66;5032856;28;99871;-63
2021/09/07 06:52:20;;;;;;;1.38;0.90;;;;;;;23.63;44.33;95359.81;5033620;28;97692;-62
2021/09/07 06:54:46;;;;;;;0.82;0.82;;;;;;;23.63;44.49;95355.09;5032996;28;96751;-61
2021/09/07 06:57:11;;;;;;;0.70;0.70;;;;;;;23.64;44.32;95350.34;5033262;28;96974;-64
2021/09/07 06:59:36;;;;;;;0.85;0.85;;;;;;;23.64;44.39;95355.88;5032400;28;99049;-60
2021/09/07 07:02:02;;;;;;;0.80;0.80;;;;;;;23.62;44.38;95350.78;5032382;28;99253;-60
2021/09/07 07:04:27;;;;;;;0.77;0.77;;;;;;;23.65;44.49;95354.69;5032974;28;96755;-59
2021/09/07 07:06:53;;;;;;;0.80;0.80;;;;;;;23.64;44.61;95353.13;5033050;28;96868;-62
2021/09/07 07:09:18;;;;;;;1.00;0.93;;;;;;;23.66;44.48;95354.31;5031683;28;102054;-60
2021/09/07 07:11:44;;;;;;;0.80;0.80;;;;;;;23.60;44.41;95355.91;5032543;28;103395;-61
2021/09/07 07:14:09;;;;;;;1.10;1.00;;;;;;;23.63;44.45;95355.09;5032817;28;96581;-56
2021/09/07 07:16:35;;;;;;;1.20;0.80;;;;;;;23.65;44.53;95357.44;5033414;28;96884;-57
2021/09/07 07:19:00;;;;;;;0.90;0.90;;;;;;;23.65;44.50;95362.97;5032900;28;98119;-58
2021/09/07 07:21:28;;;;;;;0.70;0.70;;;;;;;23.73;44.62;95369.25;5032466;28;99603;-58
2021/09/07 07:23:54;;;;;;;0.80;0.80;;;;;;;23.74;44.66;95370.81;5032252;28;96713;-61
2021/09/07 07:26:19;;;;;;;0.60;0.60;;;;;;;23.72;44.18;95371.19;5032883;28;96968;-57
2021/09/07 07:28:45;;;;;;;0.90;0.90;;;;;;;23.72;44.24;95367.66;5032589;28;99417;-58
2021/09/07 07:31:10;;;;;;;0.82;0.82;;;;;;;23.78;44.16;95377.09;5032658;28;97862;-57
2021/09/07 07:33:35;;;;;;;0.80;0.80;;;;;;;23.71;44.31;95371.59;5032439;28;96887;-62
2021/09/07 07:36:01;;;;;;;0.90;0.90;;;;;;;23.76;44.37;95376.72;5032630;28;96929;-58
2021/09/07 07:38:26;;;;;;;0.80;0.80;;;;;;;23.73;44.10;95374.75;5032446;28;99209;-57
2021/09/07 07:40:52;;;;;;;0.85;0.85;;;;;;;23.77;44.01;95375.53;5032630;28;99572;-58
2021/09/07 07:43:18;;;;;;;0.75;0.75;;;;;;;23.79;44.27;95373.91;5032506;28;96822;-60
2021/09/07 07:45:43;;;;;;;1.05;0.88;;;;;;;23.78;44.15;95371.56;5032587;28;96880;-58
2021/09/07 07:48:09;;;;;;;0.60;0.60;;;;;;;23.86;43.91;95377.81;5031818;28;99757;-58
2021/09/07 07:50:36;;;;;;;0.80;0.80;;;;;;;23.80;44.27;95380.22;5031949;28;99447;-58
2021/09/07 07:53:02;;;;;;;1.45;1.10;;;;;;;23.87;43.58;95374.66;5032535;28;96630;-56
2021/09/07 07:55:31;;;;;;;0.73;0.73;;;;;;;23.87;43.90;95374.66;5032440;28;96706;-58
2021/09/07 07:57:57;;;;;;;0.60;0.60;;;;;;;23.90;43.88;95384.09;5032116;28;99638;-58
2021/09/07 08:00:22;;;;;;;1.15;1.05;;;;;;;23.87;43.67;95377.41;5032106;28;99390;-58
2021/09/07 08:02:47;;;;;;;0.60;0.60;;;;;;;23.85;44.03;95379.78;5032309;28;96780;-58
2021/09/07 08:05:13;;;;;;;0.70;0.70;;;;;;;23.82;44.18;95375.88;5032734;28;97005;-60
2021/09/07 08:07:38;;;;;;;0.70;0.70;;;;;;;23.81;43.91;95376.28;5032062;28;99409;-59
2021/09/07 08:10:04;;;;;;;0.80;0.80;;;;;;;23.87;44.10;95369.13;5031523;28;99038;-59
2021/09/07 08:12:30;;;;;;;0.80;0.80;;;;;;;23.78;43.91;95371.56;5031841;28;96653;-60
2021/09/07 08:14:55;;;;;;;0.88;0.88;;;;;;;23.86;44.11;95373.06;5032162;28;96875;-62
2021/09/07 08:17:21;;;;;;;0.57;0.57;;;;;;;23.95;44.16;95381.69;5032164;28;98341;-59
2021/09/07 08:19:46;;;;;;;0.68;0.68;;;;;;;23.93;43.88;95378.56;5032695;28;98978;-59
2021/09/07 08:22:13;;;;;;;0.70;0.70;;;;;;;23.93;43.75;95378.56;5035660;28;96643;-60
2021/09/07 08:24:39;;;;;;;0.80;0.80;;;;;;;23.88;44.10;95381.72;5035361;28;96906;-59
2021/09/07 08:27:05;;;;;;;0.70;0.70;;;;;;;23.93;43.72;95381.31;5017109;28;99312;-56
2021/09/07 08:29:30;;;;;;;0.70;0.70;;;;;;;23.96;43.88;95371.44;5035775;28;97617;-62
2021/09/07 08:31:55;;;;;;;0.50;0.50;;;;;;;23.93;43.70;95367.50;5034979;27;96944;-61
2021/09/07 08:34:21;;;;;;;0.63;0.63;;;;;;;23.95;43.61;95370.66;5035584;28;96784;-58
2021/09/07 08:36:46;;;;;;;0.80;0.80;;;;;;;23.98;43.51;95369.88;5034297;28;99754;-62
2021/09/07 08:39:12;;;;;;;0.60;0.60;;;;;;;24.03;43.60;95371.44;5034956;28;99270;-59
2021/09/07 08:41:37;;;;;;;0.60;0.60;;;;;;;24.03;43.54;95376.16;5035287;28;96596;-59
2021/09/07 08:44:03;;;;;;;0.70;0.68;;;;;;;24.12;43.36;95368.22;5035653;28;96807;-61
2021/09/07 08:46:28;;;;;;;0.57;0.57;;;;;;;24.11;43.41;95361.13;5000458;28;98128;-61
2021/09/07 08:48:54;;;;;;;0.70;0.70;;;;;;;24.05;43.52;95368.25;5017178;28;99150;-60
2021/09/07 08:51:22;;;;;;;0.60;0.60;;;;;;;24.08;43.47;95364.69;5000291;28;96712;-61
2021/09/07 08:53:48;;;;;;;0.68;0.68;;;;;;;24.11;43.60;95366.66;5035205;28;96865;-61
2021/09/07 08:56:13;;;;;;;0.57;0.57;;;;;;;24.16;43.16;95368.19;5034785;28;99430;-61
2021/09/07 08:58:39;;;;;;;0.65;0.65;;;;;;;24.15;43.25;95356.38;5035048;28;97644;-63
2021/09/07 09:01:11;;;;;;;0.50;0.50;;;;;;;24.20;43.32;95363.41;5034370;28;96810;-60
2021/09/07 09:03:39;;;;;;;0.65;0.65;;;;;;;24.20;43.11;95366.97;5034832;28;96951;-62
2021/09/07 09:06:04;;;;;;;0.50;0.50;;;;;;;24.26;43.31;95361.78;5034585;28;99436;-59
2021/09/07 09:08:31;;;;;;;0.90;0.70;;;;;;;24.30;43.06;95356.25;5034297;28;99295;-59
2021/09/07 09:11:07;;;;;;;0.60;0.60;;;;;;;24.34;43.21;95359.78;5016786;28;97276;-61
2021/09/07 09:13:46;;;;;;;0.60;0.60;;;;;;;24.31;43.21;95346.78;5034812;28;96770;-59
2021/09/07 09:16:13;;;;;;;0.40;0.40;;;;;;;24.39;43.03;95345.53;5034541;28;98995;-59
2021/09/07 09:18:39;;;;;;;0.47;0.47;;;;;;;24.36;42.95;95343.59;5034810;28;99177;-59
2021/09/07 09:21:34;;;;;;;0.50;0.50;;;;;;;24.40;43.07;95356.16;5034604;28;96748;-59
2021/09/07 09:24:22;;;;;;;0.47;0.47;;;;;;;24.49;42.63;95346.63;5012382;28;96877;-61
2021/09/07 09:27:00;;;;;;;0.50;0.50;;;;;;;24.54;42.60;95349.72;5033841;28;100108;-59
2021/09/07 09:29:30;;;;;;;0.60;0.60;;;;;;;24.58;42.51;95338.66;5033923;28;98386;-61
2021/09/07 09:32:13;;;;;;;0.50;0.50;;;;;;;24.56;42.75;95330.75;5034076;28;96920;-60
2021/09/07 09:34:39;;;;;;;0.70;0.40;;;;;;;24.60;42.74;95335.47;5034512;28;96816;-59
2021/09/07 09:37:09;;;;;;;1.55;0.63;;;;;;;24.61;42.54;95337.84;5033593;28;99391;-59
2021/09/07 09:39:50;;;;;;;0.50;0.50;;;;;;;24.56;42.51;95330.75;5034318;28;97671;-60
2021/09/07 09:42:24;;;;;;;0.60;0.60;;;;;;;24.66;42.23;95336.59;5034338;28;96812;-61
2021/09/07 09:44:54;;;;;;;0.50;0.50;;;;;;;24.74;42.20;95343.66;5034698;28;96793;-59
2021/09/07 09:47:32;;;;;;;0.40;0.40;;;;;;;24.78;42.10;95332.53;5015912;28;99609;-59
2021/09/07 09:49:58;;;;;;;0.68;0.68;;;;;;;24.76;42.38;95338.50;5033949;28;99304;-59
2021/09/07 09:52:23;;;;;;;0.50;0.50;;;;;;;24.89;42.08;95324.94;4999039;28;96720;-60
2021/09/07 09:54:49;;;;;;;0.55;0.55;;;;;;;24.82;41.94;95331.34;5016200;28;97866;-61
2021/09/07 09:57:15;;;;;;;0.70;0.70;;;;;;;24.88;42.07;95314.31;5033730;28;99535;-61
2021/09/07 09:59:40;;;;;;;0.50;0.50;;;;;;;24.98;41.64;95324.47;5015847;28;98747;-63
2021/09/07 10:02:05;;;;;;;0.50;0.50;;;;;;;24.96;41.91;95313.03;5016004;28;96799;-61
2021/09/07 10:04:31;;;;;;;0.40;0.40;;;;;;;24.88;42.04;95323.38;5034130;28;96892;-64
2021/09/07 10:06:56;;;;;;;0.40;0.40;;;;;;;24.98;41.77;95316.16;5033655;28;99590;-60
2021/09/07 10:09:23;;;;;;;0.52;0.52;;;;;;;25.05;41.41;95316.06;5033884;28;97153;-59
2021/09/07 10:11:59;;;;;;;0.35;0.35;;;;;;;24.99;41.45;95301.16;5033686;28;96723;-60
2021/09/07 10:14:28;;;;;;;0.50;0.50;;;;;;;25.09;41.49;95313.28;5016221;28;96828;-60
2021/09/07 10:17:17;;;;;;;0.50;0.50;;;;;;;25.09;41.45;95316.81;4999350;28;99352;-60
2021/09/07 10:19:47;;;;;;;0.57;0.50;;;;;;;25.13;41.63;95311.25;5033270;28;99589;-60
2021/09/07 10:25:47;;;;;;;1.63;0.50;;;;;;;25.15;41.16;95315.16;4977470;28;96806;-61
2021/09/07 10:28:21;;;;;;;0.40;0.40;;;;;;;25.19;41.48;95308.78;5033410;28;99599;-63
2021/09/07 10:31:25;;;;;;;0.50;0.50;;;;;;;25.28;41.16;95306.31;4999489;28;98869;-63
2021/09/07 10:33:58;;;;;;;0.60;0.60;;;;;;;25.24;41.25;95300.84;5022354;27;96767;-61
2021/09/07 10:36:28;;;;;;;0.40;0.40;;;;;;;25.21;41.50;95300.88;5033287;28;97132;-60
2021/09/07 10:38:58;;;;;;;0.35;0.35;;;;;;;25.23;41.21;95298.47;5033368;28;99082;-60
2021/09/07 10:41:29;;;;;;;0.50;0.50;;;;;;;25.24;41.43;95300.03;5033175;28;99400;-62
2021/09/07 10:44:05;;;;;;;0.40;0.40;;;;;;;25.28;41.20;95295.25;5031852;27;96605;-62
2021/09/07 10:46:47;;;;;;;0.38;0.38;;;;;;;25.29;41.05;95305.13;5033533;28;96773;-62
2021/09/07 10:49:16;;;;;;;0.73;0.40;;;;;;;25.29;41.43;95291.28;5033038;28;99921;-60
2021/09/07 10:52:03;;;;;;;0.52;0.50;;;;;;;25.27;41.38;95288.97;5032740;28;99231;-63
2021/09/07 10:54:29;;;;;;;0.50;0.50;;;;;;;25.30;41.08;95295.63;5036197;28;96765;-56
2021/09/07 10:56:56;;;;;;;0.40;0.40;;;;;;;25.34;41.12;95288.06;5001695;28;96944;-61
2021/09/07 10:59:44;;;;;;;1.98;0.60;;;;;;;25.39;40.89;95284.84;5037915;28;100037;-61
2021/09/07 11:02:38;;;;;;;0.40;0.40;;;;;;;25.38;41.23;95294.34;5037969;28;98342;-60
2021/09/07 11:05:04;;;;;;;0.40;0.40;;;;;;;25.38;41.13;95288.81;5020475;28;97626;-61
2021/09/07 11:07:45;;;;;;;0.63;0.63;;;;;;;25.37;41.29;95280.91;5004577;28;96727;-58
2021/09/07 11:10:14;;;;;;;0.45;0.45;;;;;;;25.33;41.46;95275.44;5020576;28;100770;-63
2021/09/07 11:12:51;;;;;;;0.82;0.57;;;;;;;25.36;41.17;95280.16;5038586;28;98730;-61
2021/09/07 11:15:23;;;;;;;0.40;0.40;;;;;;;25.35;41.28;95266.72;5038242;28;96655;-63
2021/09/07 11:17:54;;;;;;;0.40;0.40;;;;;;;25.43;41.18;95274.53;5038696;28;96609;-64
2021/09/07 11:20:25;;;;;;;0.35;0.35;;;;;;;25.51;40.86;95263.38;5020746;28;99436;-61
2021/09/07 11:22:51;;;;;;;0.80;0.50;;;;;;;25.52;40.86;95264.97;5020236;28;99721;-62
2021/09/07 11:25:20;;;;;;;0.47;0.47;;;;;;;25.50;41.16;95267.34;5021734;28;96586;-60
2021/09/07 11:27:56;;;;;;;0.40;0.40;;;;;;;25.52;40.71;95264.97;5021261;28;96892;-60
2021/09/07 11:30:37;;;;;;;0.35;0.35;;;;;;;25.52;40.71;95264.97;5019297;28;99011;-65
2021/09/07 11:33:08;;;;;;;0.45;0.45;;;;;;;25.49;40.96;95260.25;5002881;28;100749;-61
2021/09/07 11:35:45;;;;;;;0.40;0.40;;;;;;;25.55;40.87;95258.59;5019715;28;96712;-61